createdAt,value
2018-01-06T00:01:56.723Z,6.83
2018-01-06T00:04:25.102Z,8.00
2018-01-06T00:06:53.635Z,16.10
2018-01-06T00:09:22.071Z,12.13
2018-01-06T00:11:50.909Z,7.70
2018-01-06T00:14:19.545Z,5.10
2018-01-06T00:16:49.851Z,6.47
2018-01-06T00:19:18.249Z,5.83
2018-01-06T00:21:47.447Z,4.20
2018-01-06T00:24:16.788Z,4.70
2018-01-06T00:26:45.280Z,8.23
2018-01-06T00:29:13.760Z,11.07
2018-01-06T00:31:42.312Z,7.10
2018-01-06T00:34:10.567Z,6.83
2018-01-06T00:36:39.873Z,6.10
2018-01-06T00:39:08.455Z,8.73
2018-01-06T00:41:37.765Z,8.43
2018-01-06T00:44:06.273Z,4.30
2018-01-06T00:46:34.842Z,6.63
2018-01-06T00:49:03.403Z,3.57
2018-01-06T00:51:32.718Z,6.63
2018-01-06T00:54:01.186Z,7.33
2018-01-06T00:56:29.635Z,11.00
2018-01-06T00:58:57.978Z,8.53
2018-01-06T01:01:26.369Z,7.67
2018-01-06T01:03:54.773Z,5.73
2018-01-06T01:06:23.921Z,8.30
2018-01-06T01:08:52.512Z,8.90
2018-01-06T01:11:20.854Z,6.30
2018-01-06T01:13:50.159Z,10.77
2018-01-06T01:16:18.641Z,6.77
2018-01-06T01:18:46.996Z,8.30
2018-01-06T01:21:15.591Z,9.73
2018-01-06T01:23:44.821Z,9.47
2018-01-06T01:26:13.197Z,8.77
2018-01-06T01:28:41.651Z,7.57
2018-01-06T01:31:10.773Z,9.00
2018-01-06T01:33:39.179Z,7.63
2018-01-06T01:36:07.583Z,9.37
2018-01-06T01:38:36.840Z,8.37
2018-01-06T01:41:05.234Z,11.27
2018-01-06T01:43:33.703Z,11.57
2018-01-06T01:46:02.125Z,8.53
2018-01-06T01:48:30.751Z,4.70
2018-01-06T01:50:59.195Z,9.80
2018-01-06T01:53:28.457Z,8.20
2018-01-06T01:55:57.082Z,6.97
2018-01-06T01:58:26.288Z,11.73
2018-01-06T02:00:57.709Z,7.03
2018-01-06T02:03:26.298Z,10.20
2018-01-06T02:05:55.509Z,10.20
2018-01-06T02:08:23.871Z,8.43
2018-01-06T02:10:53.039Z,12.70
2018-01-06T02:13:21.482Z,8.63
2018-01-06T02:15:50.076Z,7.80
2018-01-06T02:18:18.424Z,8.20
2018-01-06T02:20:46.913Z,9.30
2018-01-06T02:23:15.542Z,10.73
2018-01-06T02:25:44.148Z,9.00
2018-01-06T02:28:12.703Z,5.13
2018-01-06T02:30:41.055Z,7.10
2018-01-06T02:33:09.761Z,9.40
2018-01-06T02:35:38.162Z,9.03
2018-01-06T02:38:06.522Z,9.13
2018-01-06T02:40:35.079Z,11.40
2018-01-06T02:43:03.453Z,10.73
2018-01-06T02:45:31.836Z,9.63
2018-01-06T02:48:00.414Z,13.17
2018-01-06T02:50:28.771Z,16.47
2018-01-06T02:52:57.144Z,14.27
2018-01-06T02:55:26.343Z,11.20
2018-01-06T02:57:55.470Z,6.70
2018-01-06T03:00:24.149Z,8.63
2018-01-06T03:02:52.913Z,9.73
2018-01-06T03:05:21.368Z,10.30
2018-01-06T03:07:49.930Z,9.33
2018-01-06T03:10:18.377Z,5.80
2018-01-06T03:12:46.783Z,10.13
2018-01-06T03:15:15.175Z,9.00
2018-01-06T03:17:43.532Z,10.13
2018-01-06T03:20:12.089Z,8.37
2018-01-06T03:22:40.518Z,5.43
2018-01-06T03:25:09.087Z,6.33
2018-01-06T03:27:37.492Z,6.33
2018-01-06T03:30:06.133Z,8.70
2018-01-06T03:32:34.528Z,12.00
2018-01-06T03:35:02.913Z,6.30
2018-01-06T03:37:31.400Z,4.60
2018-01-06T03:40:00.759Z,9.47
2018-01-06T03:42:29.138Z,14.37
2018-01-06T03:44:57.518Z,5.47
2018-01-06T03:47:25.963Z,7.13
2018-01-06T03:49:55.295Z,11.43
2018-01-06T03:52:23.693Z,4.70
2018-01-06T03:54:52.157Z,9.30
2018-01-06T03:57:20.683Z,9.13
2018-01-06T03:59:49.940Z,7.40
2018-01-06T04:02:18.479Z,11.80
2018-01-06T04:04:47.672Z,9.13
2018-01-06T04:07:17.200Z,11.40
2018-01-06T04:09:46.082Z,10.07
2018-01-06T04:12:15.230Z,9.30
2018-01-06T04:14:43.613Z,11.30
2018-01-06T04:17:12.024Z,18.90
2018-01-06T04:19:41.364Z,10.60
2018-01-06T04:22:09.826Z,10.00
2018-01-06T04:24:38.252Z,7.30
2018-01-06T04:27:06.621Z,10.03
2018-01-06T04:29:35.128Z,8.13
2018-01-06T04:32:04.642Z,6.40
2018-01-06T04:34:33.929Z,12.13
2018-01-06T04:37:03.233Z,12.93
2018-01-06T04:39:31.621Z,10.50
2018-01-06T04:42:01.082Z,11.33
2018-01-06T04:44:29.540Z,13.83
2018-01-06T04:46:57.967Z,7.20
2018-01-06T04:49:26.306Z,9.87
2018-01-06T04:51:54.368Z,11.70
2018-01-06T04:54:22.855Z,12.73
2018-01-06T04:56:51.526Z,7.60
2018-01-06T04:59:20.291Z,11.03
2018-01-06T05:01:49.662Z,10.33
2018-01-06T05:04:18.065Z,8.80
2018-01-06T05:06:47.212Z,10.37
2018-01-06T05:09:15.727Z,10.63
2018-01-06T05:11:44.868Z,9.07
2018-01-06T05:14:13.433Z,5.00
2018-01-06T05:16:41.931Z,7.70
2018-01-06T05:19:10.367Z,9.13
2018-01-06T05:21:38.721Z,10.50
2018-01-06T05:24:06.976Z,9.00
2018-01-06T05:26:35.555Z,11.60
2018-01-06T05:29:04.056Z,10.80
2018-01-06T05:31:32.644Z,10.27
2018-01-06T05:34:01.197Z,4.57
2018-01-06T05:36:29.745Z,6.17
2018-01-06T05:38:58.973Z,6.33
2018-01-06T05:41:27.928Z,9.43
2018-01-06T05:43:57.242Z,10.70
2018-01-06T05:46:25.814Z,7.80
2018-01-06T05:48:55.177Z,6.27
2018-01-06T05:51:23.746Z,7.47
2018-01-06T05:53:52.145Z,10.60
2018-01-06T05:56:20.487Z,7.23
2018-01-06T05:58:49.068Z,10.43
2018-01-06T06:01:17.714Z,6.23
2018-01-06T06:03:47.839Z,10.90
2018-01-06T06:06:16.999Z,7.27
2018-01-06T06:08:45.444Z,9.90
2018-01-06T06:11:13.800Z,6.47
2018-01-06T06:13:42.174Z,7.57
2018-01-06T06:16:12.568Z,5.90
2018-01-06T06:18:40.932Z,10.37
2018-01-06T06:21:09.535Z,15.40
2018-01-06T06:23:37.948Z,14.00
2018-01-06T06:26:06.327Z,4.23
2018-01-06T06:28:34.779Z,7.73
2018-01-06T06:31:03.957Z,4.30
2018-01-06T06:33:32.485Z,5.63
2018-01-06T06:36:00.881Z,6.80
2018-01-06T06:38:29.407Z,8.80
2018-01-06T06:40:57.877Z,11.07
2018-01-06T06:43:27.956Z,7.67
2018-01-06T06:45:56.363Z,6.80
2018-01-06T06:48:24.789Z,6.90
2018-01-06T06:50:54.246Z,6.97
2018-01-06T06:53:22.878Z,8.77
2018-01-06T06:55:50.616Z,8.00
2018-01-06T06:58:18.623Z,3.87
2018-01-06T07:00:47.279Z,8.07
2018-01-06T07:03:15.800Z,9.13
2018-01-06T07:05:44.334Z,11.30
2018-01-06T07:08:12.697Z,10.07
2018-01-06T07:10:41.940Z,10.10
2018-01-06T07:13:10.317Z,10.90
2018-01-06T07:15:39.195Z,9.87
2018-01-06T07:18:08.600Z,11.50
2018-01-06T07:20:37.920Z,8.73
2018-01-06T07:23:07.123Z,10.87
2018-01-06T07:25:35.705Z,7.03
2018-01-06T07:28:04.051Z,6.07
2018-01-06T07:30:33.479Z,11.13
2018-01-06T07:33:01.508Z,11.37
2018-01-06T07:35:29.839Z,8.60
2018-01-06T07:37:58.203Z,12.30
2018-01-06T07:40:26.699Z,9.07
2018-01-06T07:42:55.480Z,9.83
2018-01-06T07:45:24.058Z,8.83
2018-01-06T07:47:52.432Z,14.93
2018-01-06T07:50:20.776Z,6.63
2018-01-06T07:52:49.956Z,10.70
2018-01-06T07:55:18.496Z,6.40
2018-01-06T07:57:46.866Z,9.67
2018-01-06T08:00:15.330Z,4.83
2018-01-06T08:02:43.686Z,8.73
2018-01-06T08:05:12.075Z,7.93
2018-01-06T08:07:41.178Z,7.00
2018-01-06T08:10:10.305Z,9.80
2018-01-06T08:12:38.656Z,10.70
2018-01-06T08:15:07.015Z,9.40
2018-01-06T08:17:36.137Z,8.40
2018-01-06T08:20:04.179Z,9.93
2018-01-06T08:22:33.595Z,6.33
2018-01-06T08:25:02.747Z,12.87
2018-01-06T08:27:31.148Z,9.10
2018-01-06T08:29:59.682Z,10.73
2018-01-06T08:32:28.033Z,8.07
2018-01-06T08:34:56.407Z,11.90
2018-01-06T08:37:25.530Z,8.73
2018-01-06T08:39:53.880Z,11.00
2018-01-06T08:42:22.243Z,7.97
2018-01-06T08:44:51.560Z,6.80
2018-01-06T08:47:19.925Z,17.30
2018-01-06T08:49:49.043Z,12.47
2018-01-06T08:52:17.440Z,11.57
2018-01-06T08:54:46.755Z,6.60
2018-01-06T08:57:15.254Z,9.07
2018-01-06T08:59:43.818Z,9.37
2018-01-06T09:02:12.260Z,10.83
2018-01-06T09:04:40.714Z,13.53
2018-01-06T09:07:09.822Z,12.73
2018-01-06T09:09:38.970Z,10.20
2018-01-06T09:12:07.327Z,16.37
2018-01-06T09:14:35.677Z,12.93
2018-01-06T09:17:04.058Z,10.80
2018-01-06T09:19:32.231Z,8.90
2018-01-06T09:22:00.612Z,16.00
2018-01-06T09:24:29.003Z,14.73
2018-01-06T09:26:57.534Z,13.10
2018-01-06T09:29:25.891Z,9.60
2018-01-06T09:31:54.277Z,15.03
2018-01-06T09:34:22.645Z,14.53
2018-01-06T09:36:51.057Z,10.97
2018-01-06T09:39:20.362Z,11.03
2018-01-06T09:41:52.746Z,12.90
2018-01-06T09:44:21.304Z,15.20
2018-01-06T09:46:50.462Z,12.43
2018-01-06T09:49:19.081Z,13.03
2018-01-06T09:51:47.535Z,12.90
2018-01-06T09:54:15.795Z,14.50
2018-01-06T09:56:44.374Z,9.33
2018-01-06T09:59:12.732Z,13.60
2018-01-06T10:01:41.119Z,10.73
2018-01-06T10:04:09.711Z,16.50
2018-01-06T10:06:38.099Z,14.50
2018-01-06T10:09:06.498Z,11.17
2018-01-06T10:11:35.292Z,13.17
2018-01-06T10:14:03.817Z,10.90
2018-01-06T10:16:32.167Z,17.07
2018-01-06T10:19:00.603Z,16.93
2018-01-06T10:21:29.320Z,10.60
2018-01-06T10:23:57.928Z,13.43
2018-01-06T10:26:27.296Z,14.00
2018-01-06T10:28:55.643Z,12.90
2018-01-06T10:31:24.013Z,13.70
2018-01-06T10:33:53.153Z,12.57
2018-01-06T10:36:21.707Z,13.13
2018-01-06T10:38:50.157Z,13.23
2018-01-06T10:41:18.683Z,13.37
2018-01-06T10:43:47.064Z,11.93
2018-01-06T10:46:15.738Z,12.73
2018-01-06T10:48:44.084Z,10.87
2018-01-06T10:51:12.517Z,10.70
2018-01-06T10:53:40.871Z,14.83
2018-01-06T10:56:09.379Z,10.77
2018-01-06T10:58:37.758Z,9.87
2018-01-06T11:01:12.002Z,10.27
2018-01-06T11:03:41.126Z,15.53
2018-01-06T11:06:10.108Z,12.70
2018-01-06T11:08:38.463Z,10.13
2018-01-06T11:11:07.592Z,12.53
2018-01-06T11:13:36.243Z,11.67
2018-01-06T11:16:05.376Z,13.37
2018-01-06T11:18:33.728Z,11.73
2018-01-06T11:21:02.167Z,13.10
2018-01-06T11:23:32.106Z,9.70
2018-01-06T11:26:01.222Z,14.23
2018-01-06T11:28:29.586Z,11.13
2018-01-06T11:30:58.128Z,11.50
2018-01-06T11:33:26.492Z,17.13
2018-01-06T11:35:54.840Z,11.07
2018-01-06T11:38:23.360Z,10.00
2018-01-06T11:40:51.725Z,13.77
2018-01-06T11:43:20.331Z,13.60
2018-01-06T11:45:48.726Z,14.83
2018-01-06T11:48:17.873Z,12.43
2018-01-06T11:50:46.309Z,10.73
2018-01-06T11:53:15.435Z,13.13
2018-01-06T11:55:43.827Z,12.73
2018-01-06T11:58:12.178Z,9.70
2018-01-06T12:00:40.654Z,11.93
2018-01-06T12:03:09.077Z,21.13
2018-01-06T12:05:37.444Z,14.60
2018-01-06T12:08:05.811Z,13.93
2018-01-06T12:10:34.204Z,21.03
2018-01-06T12:13:02.606Z,10.03
2018-01-06T12:15:31.827Z,13.57
2018-01-06T12:17:59.963Z,12.43
2018-01-06T12:20:28.381Z,22.43
2018-01-06T12:22:56.781Z,13.20
2018-01-06T12:25:25.211Z,10.53
2018-01-06T12:27:55.107Z,12.03
2018-01-06T12:30:23.518Z,14.90
2018-01-06T12:32:53.666Z,14.00
2018-01-06T12:35:22.352Z,10.00
2018-01-06T12:37:50.884Z,15.50
2018-01-06T12:40:20.085Z,13.70
2018-01-06T12:42:48.485Z,14.03
2018-01-06T12:45:17.684Z,18.93
2018-01-06T12:47:46.993Z,13.50
2018-01-06T12:50:15.557Z,11.13
2018-01-06T12:52:43.981Z,12.40
2018-01-06T12:55:12.610Z,14.83
2018-01-06T12:57:40.997Z,15.00
2018-01-06T13:00:10.200Z,14.30
2018-01-06T13:02:39.530Z,15.13
2018-01-06T13:05:08.579Z,11.23
2018-01-06T13:07:38.920Z,15.60
2018-01-06T13:10:08.102Z,13.00
2018-01-06T13:12:36.636Z,12.90
2018-01-06T13:15:05.840Z,13.90
2018-01-06T13:17:34.203Z,15.43
2018-01-06T13:20:02.570Z,14.20
2018-01-06T13:22:31.027Z,19.57
2018-01-06T13:25:00.180Z,13.63
2018-01-06T13:27:28.582Z,16.80
2018-01-06T13:29:56.981Z,18.37
2018-01-06T13:32:25.548Z,11.17
2018-01-06T13:34:53.923Z,18.53
2018-01-06T13:37:22.315Z,14.33
2018-01-06T13:39:50.715Z,13.50
2018-01-06T13:42:19.090Z,14.07
2018-01-06T13:44:47.506Z,19.17
2018-01-06T13:47:15.904Z,15.50
2018-01-06T13:49:44.383Z,18.43
2018-01-06T13:52:13.004Z,12.67
2018-01-06T13:54:42.281Z,17.50
2018-01-06T13:57:10.770Z,16.30
2018-01-06T13:59:40.326Z,14.50
2018-01-06T14:02:08.918Z,12.40
2018-01-06T14:04:37.447Z,15.23
2018-01-06T14:07:06.764Z,14.50
2018-01-06T14:09:35.199Z,15.63
2018-01-06T14:12:03.693Z,14.90
2018-01-06T14:14:33.766Z,16.10
2018-01-06T14:17:02.338Z,19.60
2018-01-06T14:19:30.757Z,15.97
2018-01-06T14:21:59.116Z,18.07
2018-01-06T14:24:27.564Z,18.33
2018-01-06T14:26:56.014Z,16.57
2018-01-06T14:29:24.972Z,15.07
2018-01-06T14:31:53.579Z,19.40
2018-01-06T14:34:22.297Z,21.07
2018-01-06T14:36:51.467Z,22.30
2018-01-06T14:39:20.064Z,16.67
2018-01-06T14:41:49.224Z,18.30
2018-01-06T14:44:17.597Z,19.67
2018-01-06T14:46:46.250Z,19.93
2018-01-06T14:49:15.470Z,15.50
2018-01-06T14:51:44.049Z,16.63
2018-01-06T14:54:12.431Z,23.90
2018-01-06T14:56:40.810Z,22.27
2018-01-06T14:59:09.212Z,18.73
2018-01-06T15:01:37.738Z,22.00
2018-01-06T15:04:06.188Z,24.93
2018-01-06T15:06:35.548Z,23.00
2018-01-06T15:09:03.630Z,17.63
2018-01-06T15:11:32.192Z,20.10
2018-01-06T15:14:00.640Z,20.90
2018-01-06T15:16:29.901Z,22.70
2018-01-06T15:18:58.331Z,19.53
2018-01-06T15:21:26.707Z,25.80
2018-01-06T15:23:55.074Z,24.00
2018-01-06T15:26:23.444Z,26.30
2018-01-06T15:28:53.091Z,23.63
2018-01-06T15:31:21.530Z,19.17
2018-01-06T15:33:50.647Z,28.17
2018-01-06T15:36:19.142Z,23.13
2018-01-06T15:38:47.563Z,22.30
2018-01-06T15:41:15.957Z,22.30
2018-01-06T15:43:45.409Z,25.83
2018-01-06T15:46:13.859Z,16.13
2018-01-06T15:48:42.263Z,21.40
2018-01-06T15:51:10.636Z,20.57
2018-01-06T15:53:39.015Z,20.93
2018-01-06T15:56:07.394Z,22.40
2018-01-06T15:58:35.773Z,21.27
2018-01-06T16:01:04.177Z,23.13
2018-01-06T16:03:32.583Z,23.20
2018-01-06T16:06:01.074Z,23.93
2018-01-06T16:08:30.204Z,25.17
2018-01-06T16:10:58.581Z,22.37
2018-01-06T16:13:27.010Z,17.73
2018-01-06T16:15:55.384Z,21.40
2018-01-06T16:18:23.772Z,25.33
2018-01-06T16:20:53.009Z,21.93
2018-01-06T16:23:21.500Z,20.43
2018-01-06T16:25:49.894Z,19.97
2018-01-06T16:28:18.336Z,19.30
2018-01-06T16:30:46.726Z,26.03
2018-01-06T16:33:15.115Z,27.37
2018-01-06T16:35:43.725Z,21.03
2018-01-06T16:38:12.093Z,24.97
2018-01-06T16:40:40.503Z,24.30
2018-01-06T16:43:08.884Z,32.20
2018-01-06T16:45:37.262Z,25.40
2018-01-06T16:48:05.667Z,25.77
2018-01-06T16:50:34.233Z,29.50
2018-01-06T16:53:03.378Z,34.23
2018-01-06T16:55:31.855Z,25.07
2018-01-06T16:58:01.249Z,28.47
2018-01-06T17:00:30.117Z,27.67
2018-01-06T17:02:58.644Z,25.93
2018-01-06T17:05:27.023Z,29.50
2018-01-06T17:07:55.434Z,19.90
2018-01-06T17:10:24.588Z,20.67
2018-01-06T17:12:52.977Z,21.87
2018-01-06T17:15:21.424Z,28.33
2018-01-06T17:17:50.050Z,25.20
2018-01-06T17:20:18.449Z,27.43
2018-01-06T17:22:47.658Z,24.17
2018-01-06T17:25:16.812Z,25.60
2018-01-06T17:27:45.180Z,18.37
2018-01-06T17:30:13.563Z,26.00
2018-01-06T17:32:42.153Z,25.27
2018-01-06T17:35:10.540Z,23.90
2018-01-06T17:37:38.951Z,22.80
2018-01-06T17:40:07.381Z,19.37
2018-01-06T17:42:35.801Z,21.17
2018-01-06T17:45:04.989Z,26.10
2018-01-06T17:47:34.320Z,26.60
2018-01-06T17:50:02.761Z,21.10
2018-01-06T17:52:31.261Z,23.73
2018-01-06T17:55:00.413Z,26.40
2018-01-06T17:57:28.804Z,26.87
2018-01-06T17:59:57.213Z,26.50
2018-01-06T18:02:26.393Z,26.00
2018-01-06T18:04:54.759Z,18.53
2018-01-06T18:07:23.172Z,20.57
2018-01-06T18:09:51.766Z,26.63
2018-01-06T18:12:20.251Z,22.73
2018-01-06T18:14:48.618Z,23.50
2018-01-06T18:17:17.003Z,24.37
2018-01-06T18:19:45.395Z,21.80
2018-01-06T18:22:14.050Z,19.93
2018-01-06T18:24:42.576Z,27.23
2018-01-06T18:27:10.995Z,19.63
2018-01-06T18:29:39.373Z,31.00
2018-01-06T18:32:07.837Z,24.20
2018-01-06T18:34:36.249Z,32.17
2018-01-06T18:37:05.458Z,27.13
2018-01-06T18:39:33.869Z,27.83
2018-01-06T18:42:02.368Z,23.87
2018-01-06T18:44:30.805Z,21.57
2018-01-06T18:46:59.297Z,23.50
2018-01-06T18:49:27.773Z,27.33
2018-01-06T18:51:56.160Z,29.27
2018-01-06T18:54:24.556Z,25.00
2018-01-06T18:56:53.061Z,25.63
2018-01-06T18:59:21.432Z,27.07
2018-01-06T19:01:49.847Z,28.20
2018-01-06T19:04:18.241Z,28.27
2018-01-06T19:06:46.618Z,26.53
2018-01-06T19:09:15.163Z,32.57
2018-01-06T19:11:44.277Z,25.40
2018-01-06T19:14:12.681Z,25.43
2018-01-06T19:16:41.031Z,28.10
2018-01-06T19:19:09.391Z,27.10
2018-01-06T19:21:38.557Z,22.07
2018-01-06T19:24:06.932Z,24.87
2018-01-06T19:26:35.329Z,25.27
2018-01-06T19:29:03.873Z,27.90
2018-01-06T19:31:32.252Z,26.00
2018-01-06T19:34:00.648Z,32.13
2018-01-06T19:36:29.205Z,26.23
2018-01-06T19:38:57.593Z,29.27
2018-01-06T19:41:25.967Z,30.10
2018-01-06T19:43:54.350Z,33.10
2018-01-06T19:46:22.926Z,33.20
2018-01-06T19:48:51.340Z,32.20
2018-01-06T19:51:19.839Z,33.67
2018-01-06T19:53:49.074Z,29.50
2018-01-06T19:56:18.107Z,33.80
2018-01-06T19:58:46.650Z,35.77
2018-01-06T20:01:15.060Z,37.83
2018-01-06T20:03:43.446Z,31.37
2018-01-06T20:06:12.705Z,32.57
2018-01-06T20:08:41.069Z,35.47
2018-01-06T20:11:09.449Z,37.30
2018-01-06T20:13:37.824Z,35.07
2018-01-06T20:16:06.970Z,40.23
2018-01-06T20:18:35.644Z,37.03
2018-01-06T20:21:04.031Z,42.00
2018-01-06T20:23:32.427Z,42.73
2018-01-06T20:26:00.478Z,40.83
2018-01-06T20:28:29.069Z,39.43
2018-01-06T20:30:57.222Z,37.87
2018-01-06T20:33:25.616Z,48.67
2018-01-06T20:35:54.008Z,42.97
2018-01-06T20:38:22.426Z,44.27
2018-01-06T20:40:50.796Z,44.80
2018-01-06T20:43:19.257Z,39.60
2018-01-06T20:45:48.361Z,43.67
2018-01-06T20:48:17.548Z,41.93
2018-01-06T20:50:45.908Z,48.30
2018-01-06T20:53:15.940Z,53.23
2018-01-06T20:55:44.614Z,48.50
2018-01-06T20:58:12.985Z,52.53
2018-01-06T21:00:41.367Z,43.77
2018-01-06T21:03:09.785Z,47.87
2018-01-06T21:05:38.190Z,52.40
2018-01-06T21:08:06.760Z,47.57
2018-01-06T21:10:35.260Z,55.80
2018-01-06T21:13:03.928Z,55.60
2018-01-06T21:15:32.329Z,60.23
2018-01-06T21:18:00.697Z,55.97
2018-01-06T21:20:29.074Z,62.43
2018-01-06T21:22:57.455Z,57.93
2018-01-06T21:25:25.861Z,59.60
2018-01-06T21:27:53.911Z,67.13
2018-01-06T21:30:22.292Z,61.60
2018-01-06T21:32:50.700Z,65.83
2018-01-06T21:35:18.845Z,72.77
2018-01-06T21:37:47.355Z,59.07
2018-01-06T21:40:16.513Z,66.10
2018-01-06T21:42:44.908Z,59.63
2018-01-06T21:45:13.286Z,62.73
2018-01-06T21:47:41.701Z,62.20
2018-01-06T21:50:10.860Z,68.43
2018-01-06T21:52:39.380Z,63.67
2018-01-06T21:55:08.581Z,64.97
2018-01-06T21:57:37.749Z,63.70
2018-01-06T22:00:08.022Z,67.33
2018-01-06T22:02:36.467Z,67.03
2018-01-06T22:05:05.650Z,81.37
2018-01-06T22:07:34.166Z,71.10
2018-01-06T22:10:02.316Z,69.30
2018-01-06T22:12:31.470Z,67.03
2018-01-06T22:14:59.982Z,68.07
2018-01-06T22:17:28.465Z,66.13
2018-01-06T22:19:56.851Z,65.33
2018-01-06T22:22:26.051Z,65.97
2018-01-06T22:24:55.252Z,57.03
2018-01-06T22:27:24.586Z,66.70
2018-01-06T22:29:53.134Z,62.40
2018-01-06T22:32:22.291Z,58.00
2018-01-06T22:34:51.112Z,63.00
2018-01-06T22:37:20.363Z,58.67
2018-01-06T22:39:48.807Z,51.20
2018-01-06T22:42:17.615Z,62.50
2018-01-06T22:44:46.187Z,66.10
2018-01-06T22:47:15.380Z,61.23
2018-01-06T22:49:45.053Z,63.17
2018-01-06T22:52:13.591Z,67.70
2018-01-06T22:54:42.067Z,61.63
2018-01-06T22:57:10.932Z,60.57
2018-01-06T22:59:40.769Z,63.57
2018-01-06T23:02:09.159Z,57.70
2018-01-06T23:04:38.021Z,62.90
2018-01-06T23:07:06.519Z,57.17
2018-01-06T23:09:35.031Z,58.30
2018-01-06T23:12:03.777Z,60.70
2018-01-06T23:14:32.874Z,59.90
2018-01-06T23:17:01.255Z,60.53
2018-01-06T23:19:29.638Z,58.33
2018-01-06T23:21:58.500Z,56.37
2018-01-06T23:24:27.626Z,56.70
2018-01-06T23:26:56.065Z,62.90
2018-01-06T23:29:25.349Z,62.43
2018-01-06T23:31:54.499Z,61.67
2018-01-06T23:34:23.039Z,59.57
2018-01-06T23:36:51.727Z,60.93
2018-01-06T23:39:20.867Z,61.67
2018-01-06T23:41:49.240Z,63.10
2018-01-06T23:44:17.611Z,64.93
2018-01-06T23:46:46.146Z,55.80
2018-01-06T23:49:15.302Z,65.40
2018-01-06T23:51:43.679Z,58.60
2018-01-06T23:54:11.880Z,66.07
2018-01-06T23:56:40.239Z,67.13
2018-01-06T23:59:08.616Z,59.80
